• Join FlightAware (Why Join?)
  • Login
  • US Flag 
07:14PM EDT


 

Airport Tracker/Info


-or-


 

Live Flight TrackerFlight Track Log ✈ AAL169 ✈ 27-May-2012 ✈ KLAX - RJAA / NRT

Flight Track Log - Related Links

Times and Time Zones

All times are in EDT time to prevent confusion due to time zone crossing. See the AAL169 flight status page for this flight to view local times or setup timezone preferences in your user account.

Time Position Orientation Groundspeed Altitude Reporting Facility
EDT Latitude Longitude Course Direction KTS MPH feet Rate Location/Type
03:59PM 33.9817 -118.4700 207° Southwest  Level FlightAware Approximate
04:00PM 34.0551 -118.5864 150° Southeast  Level FlightAware Approximate
04:01PM 33.9333 -118.5000 262° West 221 254 2,000  Level Southern California TRACON
04:05PM 33.8767 -118.9808 295° West 372 428 9,700 1,860 Climbing Los Angeles Center
04:06PM 33.9181 -119.0900 314° West 350 403 12,100 2,220 Climbing Los Angeles Center
04:07PM 33.9889 -119.1800 312° West 350 403 14,200 1,980 Climbing Los Angeles Center
04:08PM 34.0614 -119.2756 313° West 361 415 16,100 1,680 Climbing Los Angeles Center
04:09PM 34.1281 -119.3608 313° West 382 440 17,600 1,500 Climbing Los Angeles Center
04:10PM 34.2047 -119.4592 312° West 388 447 19,100 1,560 Climbing Los Angeles Center
04:11PM 34.2811 -119.5603 315° West 401 461 20,800 1,560 Climbing Los Angeles Center
04:12PM 34.3639 -119.6619 314° West 408 470 22,300 1,440 Climbing Los Angeles Center
04:13PM 34.4464 -119.7661 312° West 414 476 23,700 1,320 Climbing Los Angeles Center
04:14PM 34.5267 -119.8756 316° Northwest 419 482 25,000 1,200 Climbing Los Angeles Center
04:15PM 34.6131 -119.9778 313° West 430 495 26,100 1,020 Climbing Los Angeles Center
04:16PM 34.6992 -120.0906 314° West 435 501 27,100 960 Climbing Los Angeles Center
04:17PM 34.7872 -120.2033 313° West 447 514 28,100 900 Climbing Los Angeles Center
04:18PM 34.8753 -120.3167 312° West 453 521 28,900 720 Climbing Los Angeles Center
04:19PM 34.9631 -120.4353 312° West 466 536 29,600 1,020 Climbing Los Angeles Center
04:20PM 35.0606 -120.5672 313° West 471 542 31,000 660 Climbing Los Angeles Center
04:22PM 35.2658 -120.8389 312° West 461 531 31,900 240 Climbing Oakland Center
04:23PM 35.3536 -120.9583 313° West 467 537 32,000  Climbing Oakland Center
04:24PM 35.4411 -121.0731 313° West 467 537 32,000  Level Oakland Center
04:25PM 35.5267 -121.1878 324° Northwest 462 532 32,000 -60 Level Oakland Center
04:26PM 35.6328 -121.2828 335° Northwest 462 532 31,900  Descending Oakland Center
04:27PM 35.7536 -121.3522 334° Northwest 473 544 32,000  Climbing Oakland Center
04:28PM 35.8722 -121.4244 334° Northwest 473 544 32,000  Level Oakland Center
04:29PM 35.9908 -121.4972 335° Northwest 473 544 32,000  Level Oakland Center
04:30PM 36.1217 -121.5725 332° Northwest 473 544 32,000 -60 Level Oakland Center
04:31PM 36.2381 -121.6481 333° Northwest 468 539 31,900  Descending Oakland Center
04:32PM 36.3544 -121.7214 333° Northwest 468 539 32,000  Climbing Oakland Center
04:33PM 36.4708 -121.7947 332° Northwest 468 539 32,000 -60 Level Oakland Center
04:34PM 36.5808 -121.8683 333° Northwest 462 532 31,900 -60 Descending Oakland Center
04:35PM 36.6972 -121.9422 333° Northwest 462 532 31,900  Level Oakland Center
04:36PM 36.8133 -122.0164 334° Northwest 462 532 32,000  Climbing Oakland Center
04:37PM 36.9294 -122.0881 332° Northwest 462 532 32,000  Level Oakland Center
04:38PM 37.0456 -122.1653 333° Northwest 462 532 32,000 -60 Level Oakland Center
04:39PM 37.1575 -122.2375 333° Northwest 462 532 31,900 -60 Descending Oakland Center
04:40PM 37.2756 -122.3125 332° Northwest 462 532 31,900  Level Oakland Center
04:41PM 37.3894 -122.3903 333° Northwest 462 532 32,000  Climbing Oakland Center
04:42PM 37.5031 -122.4631 333° Northwest 462 532 31,900  Descending Oakland Center
04:43PM 37.6189 -122.5389 332° Northwest 462 532 32,000  Climbing Oakland Center
04:44PM 37.7328 -122.6147 331° Northwest 462 532 32,000 -60 Level Oakland Center
04:45PM 37.8503 -122.6964 334° Northwest 462 532 31,900  Descending Oakland Center
04:46PM 37.9661 -122.7675 332° Northwest 462 532 32,000  Climbing Oakland Center
04:47PM 38.0858 -122.8469 332° Northwest 472 543 32,000 -60 Level Oakland Center
04:48PM 38.2014 -122.9239 333° Northwest 477 549 31,900 -60 Descending Oakland Center
04:49PM 38.3047 -122.9903 333° Northwest 472 543 31,900  Level Oakland Center
04:50PM 38.4181 -123.0650 331° Northwest 467 537 32,000  Climbing Oakland Center
04:51PM 38.5333 -123.1453 333° Northwest 467 537 32,000 360 Level Oakland Center
04:52PM 38.6467 -123.2203 332° Northwest 467 537 32,800 420 Climbing Oakland Center
04:53PM 38.7619 -123.2986 333° Northwest 467 537 32,900  Climbing Oakland Center
04:54PM 38.8753 -123.3742 332° Northwest 467 537 32,900  Level Oakland Center
04:55PM 38.9883 -123.4528 333° Northwest 467 537 32,900  Level Oakland Center
04:56PM 39.1033 -123.5289 329° Northwest 462 532 33,000  Climbing Oakland Center
04:57PM 39.2100 -123.6106 333° Northwest 462 532 33,000  Level Oakland Center
04:58PM 39.3211 -123.6844 332° Northwest 449 517 33,000 -60 Level Oakland Center
04:59PM 39.4339 -123.7614 331° Northwest 455 524 32,900  Descending Oakland Center
05:00PM 39.5444 -123.8411 332° Northwest 455 524 33,000  Climbing Oakland Center
05:02PM 39.6764 -123.9311 332° Northwest 456 525 33,000  Level Seattle Center
05:03PM 39.8122 -124.0269 332° Northwest 460 529 33,000 -60 Level Seattle Center
05:04PM 39.9233 -124.1056 332° Northwest 457 526 32,900  Descending Seattle Center
05:05PM 40.0342 -124.1831 331° Northwest 454 522 33,000  Climbing Seattle Center
05:06PM 40.1450 -124.2619 331° Northwest 452 520 32,900  Descending Seattle Center
05:07PM 40.2536 -124.3408 331° Northwest 446 513 33,000  Climbing Seattle Center
05:08PM 40.3619 -124.4197 332° Northwest 450 518 33,000  Level Seattle Center
05:09PM 40.4742 -124.4986 332° Northwest 455 524 33,000  Level Seattle Center
05:10PM 40.5911 -124.5822 331° Northwest 455 524 33,000 -60 Level Seattle Center
05:11PM 40.7017 -124.6625 331° Northwest 454 522 32,900  Descending Seattle Center
05:12PM 40.8125 -124.7428 331° Northwest 454 522 33,000  Climbing Seattle Center
05:13PM 40.9233 -124.8236 331° Northwest 455 524 33,000  Level Seattle Center
05:14PM 41.0336 -124.9047 331° Northwest 454 522 33,000 -60 Level Seattle Center
05:15PM 41.1444 -124.9858 331° Northwest 455 524 32,900  Descending Seattle Center
05:16PM 41.2547 -125.0675 331° Northwest 455 524 33,000  Climbing Seattle Center
05:17PM 41.3661 -125.1492 331° Northwest 456 525 32,900 -60 Descending Seattle Center
05:18PM 41.4761 -125.2297 331° Northwest 454 522 32,900  Level Seattle Center
05:19PM 41.6086 -125.3275 329° Northwest 454 522 33,000  Climbing Seattle Center
05:20PM 41.7164 -125.4133 331° Northwest 452 520 33,000 -60 Level Seattle Center
05:21PM 41.8283 -125.4975 332° Northwest 457 526 32,900 -60 Descending Seattle Center
05:22PM 41.9394 -125.5786 330° Northwest 456 525 32,900  Level Seattle Center
05:23PM 42.0497 -125.6628 330° Northwest 457 526 33,000  Climbing Seattle Center
05:24PM 42.1586 -125.7469 331° Northwest 453 521 33,000 -60 Level Seattle Center
05:25PM 42.2667 -125.8281 330° Northwest 450 518 32,900  Descending Seattle Center
05:26PM 42.3744 -125.9117 330° Northwest 447 514 33,000  Climbing Seattle Center
05:27PM 42.4822 -125.9953 330° Northwest 447 514 33,000  Level Seattle Center
05:28PM 42.5900 -126.0814 330° Northwest 449 517 33,000 -60 Level Seattle Center
05:29PM 42.6972 -126.1644 319° Northwest 447 514 32,900  Descending Seattle Center
05:30PM 42.8081 -126.2939 318° Northwest 433 498 33,000  Climbing Seattle Center
05:34PM 43.1333 -126.7000 318° Northwest 445 512 33,000  Level Oakland Oceanic (ODAPS)
05:35PM 43.2000 -126.7833 317° Northwest 445 512 33,000  Level Oakland Oceanic (ODAPS)
06:01PM 45.5667 -129.9833 315° West 445 512 33,000  Level Oakland Oceanic (ODAPS)
06:11PM 46.4000 -131.2167 314° West 442 509 33,000  Level Oakland Oceanic (ODAPS)
06:19PM 47.0000 -132.1333 317° Northwest 456 525 33,000  Level Oakland Oceanic (ODAPS)
06:28PM 47.8667 -133.3333 316° Northwest 464 534 33,000  Level Oakland Oceanic (ODAPS)
06:53PM 50.1500 -136.8000 314° West 483 556 33,000  Level Oakland Oceanic (ODAPS)
06:55PM 50.2833 -137.0167 314° West 483 556 33,000  Level Oakland Oceanic (ODAPS)
07:14PM 52.0000 -140.0000 300° West 465 535 33,000  Level Oakland Oceanic (ODAPS)
07:17PM 52.2000 -140.5667 301° West 460 529 33,000  Level Oakland Oceanic (ODAPS)
07:21PM 52.5000 -141.3833 300° West 456 525 33,000  Level Oakland Oceanic (ODAPS)
07:48PM 54.0667 -146.4167 296° West 449 517 33,000  Level Oakland Oceanic (ODAPS)
08:07PM 55.0000 -150.0000 284° West 446 513 33,000  Level Oakland Oceanic (ODAPS)
08:15PM 55.2333 -151.7167 283° West 438 504 33,000  Level Oakland Oceanic (ODAPS)
08:31PM 55.6333 -155.0167 281° West 440 506 33,000  Level Anchorage Center
08:35PM 55.7167 -155.8333 278° West 420 483 33,000  Level Anchorage Center
08:36PM 55.7333 -156.0500 279° West 430 495 33,000  Level Anchorage Center
08:37PM 55.7500 -156.2500 277° West 430 495 33,000  Level Anchorage Center
08:38PM 55.7667 -156.5000 278° West 420 483 33,000  Level Anchorage Center
08:39PM 55.7833 -156.7167 279° West 420 483 33,000  Level Anchorage Center
08:40PM 55.8000 -156.9167 279° West 410 472 33,000  Level Anchorage Center
08:41PM 55.8167 -157.1167 280° West 420 483 33,000  Level Anchorage Center
08:42PM 55.8333 -157.2833 278° West 420 483 33,000  Level Anchorage Center
08:43PM 55.8500 -157.5000 279° West 420 483 33,000  Level Anchorage Center
08:44PM 55.8667 -157.7000 278° West 420 483 33,000  Level Anchorage Center
08:45PM 55.8833 -157.9167 279° West 420 483 33,000  Level Anchorage Center
08:46PM 55.9000 -158.1167 277° West 420 483 33,000  Level Anchorage Center
08:47PM 55.9167 -158.3667 278° West 420 483 33,000  Level Anchorage Center
08:48PM 55.9333 -158.5833 278° West 430 495 33,000  Level Anchorage Center
08:49PM 55.9500 -158.8000 280° West 420 483 33,000  Level Anchorage Center
08:50PM 55.9667 -158.9667 270° West 420 483 33,000  Level Anchorage Center
08:51PM 55.9667 -159.1833 284° West 430 495 33,000  Level Anchorage Center
08:52PM 56.0000 -159.4167 270° West 440 506 33,000  Level Anchorage Center
08:53PM 56.0000 -159.6333 278° West 430 495 33,000 300 Level Anchorage Center
08:54PM 56.0167 -159.8500 278° West 430 495 33,700 840 Climbing Anchorage Center
08:55PM 56.0333 -160.0667 270° West 430 495 34,800 900 Climbing Anchorage Center
08:56PM 56.0333 -160.2833 278° West 430 495 35,600 600 Climbing Anchorage Center
08:57PM 56.0500 -160.5000 270° West 440 506 36,000 180 Climbing Anchorage Center
08:58PM 56.0500 -160.7167 277° West 440 506 36,000  Level Anchorage Center
08:59PM 56.0667 -160.9500 270° West 440 506 36,000  Level Anchorage Center
09:00PM 56.0667 -161.1667 270° West 450 518 36,000  Level Anchorage Center
09:01PM 56.0667 -161.4000 278° West 440 506 36,000  Level Anchorage Center
09:02PM 56.0833 -161.6167 270° West 440 506 36,000  Level Anchorage Center
09:03PM 56.0833 -161.8333 270° West 440 506 36,000  Level Anchorage Center
09:04PM 56.0833 -162.0500 278° West 450 518 36,000  Level Anchorage Center
09:05PM 56.1000 -162.2667 270° West 440 506 36,000  Level Anchorage Center
09:06PM 56.1000 -162.5000 270° West 440 506 36,000  Level Anchorage Center
09:07PM 56.1000 -162.7167 278° West 440 506 36,000  Level Anchorage Center
09:08PM 56.1167 -162.9333 270° West 440 506 36,000  Level Anchorage Center
09:09PM 56.1167 -163.1667 270° West 440 506 36,000  Level Anchorage Center
09:10PM 56.1167 -163.4167 270° West 440 506 36,000  Level Anchorage Center
09:11PM 56.1167 -163.6500 270° West 450 518 36,000  Level Anchorage Center
09:13PM 56.1167 -164.1000 270° West 450 518 36,000  Level Anchorage Center
09:14PM 56.1167 -164.3167 277° West 450 518 36,000  Level Anchorage Center
09:15PM 56.1333 -164.5500 270° West 440 506 36,000  Level Anchorage Center
09:16PM 56.1333 -164.7667 270° West 440 506 36,000  Level Anchorage Center
09:17PM 56.1333 -165.0000 270° West 440 506 36,000  Level Anchorage Center
09:18PM 56.1333 -165.2167 270° West 460 529 36,000  Level Anchorage Center
09:19PM 56.1333 -165.4500 262° West 450 518 36,000  Level Anchorage Center
09:20PM 56.1167 -165.6667 270° West 450 518 36,000  Level Anchorage Center
09:21PM 56.1167 -165.9000 270° West 450 518 36,000  Level Anchorage Center
09:22PM 56.1167 -166.1333 270° West 450 518 36,000  Level Anchorage Center
09:23PM 56.1167 -166.3167 270° West 430 495 36,000  Level Anchorage Center
09:24PM 56.1167 -166.5500 270° West 450 518 36,000  Level Anchorage Center
09:25PM 56.1167 -166.7833 270° West 460 529 36,000  Level Anchorage Center
09:26PM 56.1167 -167.0000 263° West 450 518 36,000  Level Anchorage Center
09:27PM 56.1000 -167.2333 270° West 460 529 36,000  Level Anchorage Center
09:28PM 56.1000 -167.4667 270° West 460 529 36,000  Level Anchorage Center
09:29PM 56.1000 -167.7000 270° West 460 529 36,000  Level Anchorage Center
09:30PM 56.1000 -167.9333 263° West 460 529 36,000  Level Anchorage Center
09:31PM 56.0833 -168.1667 270° West 460 529 36,000  Level Anchorage Center
09:32PM 56.0833 -168.4000 263° West 470 541 36,000  Level Anchorage Center
09:33PM 56.0667 -168.6333 270° West 470 541 36,000  Level Anchorage Center
09:34PM 56.0667 -168.8667 263° West 460 529 36,000  Level Anchorage Center
09:35PM 56.0500 -169.1000 270° West 470 541 36,000  Level Anchorage Center
09:36PM 56.0500 -169.3333 270° West 460 529 36,000  Level Anchorage Center
09:37PM 56.0500 -169.5667 263° West 450 518 36,000  Level Anchorage Center
09:38PM 56.0333 -169.8000 263° West 470 541 36,000  Level Anchorage Center
09:39PM 56.0167 -170.0333 270° West 460 529 36,000  Level Anchorage Center
09:40PM 56.0167 -170.2667 263° West 460 529 36,000  Level Anchorage Center
09:41PM 56.0000 -170.5000 263° West 460 529 36,000  Level Anchorage Center
09:42PM 55.9833 -170.7333 263° West 460 529 36,000  Level Anchorage Center
09:43PM 55.9667 -170.9667 263° West 460 529 36,000  Level Anchorage Center
09:44PM 55.9500 -171.2000 263° West 470 541 36,000  Level Anchorage Center
09:45PM 55.9333 -171.4333 263° West 470 541 36,000  Level Anchorage Center
09:46PM 55.9167 -171.6667 262° West 460 529 36,000  Level Anchorage Center
09:47PM 55.9000 -171.8833 263° West 450 518 36,000  Level Anchorage Center
09:48PM 55.8833 -172.1167 263° West 470 541 36,000  Level Anchorage Center
09:49PM 55.8667 -172.3500 263° West 460 529 36,000  Level Anchorage Center
09:50PM 55.8500 -172.5833 262° West 470 541 36,000  Level Anchorage Center
09:51PM 55.8333 -172.8000 263° West 460 529 36,000  Level Anchorage Center
09:52PM 55.8167 -173.0333 256° West 470 541 36,000  Level Anchorage Center
09:53PM 55.7833 -173.2667 263° West 470 541 36,000  Level Anchorage Center
09:54PM 55.7667 -173.5000 263° West 460 529 36,000  Level Anchorage Center
09:55PM 55.7500 -173.7333 263° West 470 541 36,000  Level Anchorage Center
09:56PM 55.7333 -173.9667 256° West 480 552 36,000  Level Anchorage Center
09:57PM 55.7000 -174.2000 261° West 470 541 36,000  Level Anchorage Center
09:58PM 55.6833 -174.3833 263° West 470 541 36,000  Level Anchorage Center
09:59PM 55.6667 -174.6167 263° West 470 541 36,000  Level Anchorage Center
10:00PM 55.6500 -174.8500 256° West 480 552 36,000  Level Anchorage Center
10:01PM 55.6167 -175.0833 263° West 470 541 36,000  Level Anchorage Center
10:02PM 55.6000 -175.3167 256° West 470 541 36,000  Level Anchorage Center
10:03PM 55.5667 -175.5500 263° West 470 541 36,000  Level Anchorage Center
10:04PM 55.5500 -175.7833 255° West 480 552 36,000  Level Anchorage Center
10:05PM 55.5167 -176.0000 263° West 470 541 36,000  Level Anchorage Center
10:06PM 55.5000 -176.2333 256° West 480 552 36,000  Level Anchorage Center
10:07PM 55.4667 -176.4667 263° West 480 552 36,000  Level Anchorage Center
10:08PM 55.4500 -176.7000 255° West 480 552 36,000  Level Anchorage Center
10:12PM 55.3167 -177.5500 259° West 489 563 36,000  Level Anchorage Center
10:16PM 55.2000 -178.5333 263° West 488 562 36,000  Level Anchorage Center
10:31PM 54.9167 177.9833 260° West 490 564 36,000  Level Anchorage Center
10:35PM 54.8167 177.0667 258° West 490 564 36,000  Level Anchorage Center
10:36PM 54.7833 176.8000 254° West 490 564 36,000  Level Anchorage Center
10:37PM 54.7500 176.6000 264° West 490 564 36,000  Level Anchorage Center
10:38PM 54.7333 176.3500 254° West 490 564 36,000  Level Anchorage Center
10:39PM 54.7000 176.1500 258° West 500 575 36,000  Level Anchorage Center
10:40PM 54.6667 175.8833 262° West 500 575 36,000  Level Anchorage Center
10:41PM 54.6500 175.6833 257° West 490 564 36,000  Level Anchorage Center
10:42PM 54.6167 175.4333 257° West 490 564 36,000  Level Anchorage Center
10:43PM 54.5833 175.1833 254° West 490 564 36,000  Level Anchorage Center
10:44PM 54.5500 174.9833 257° West 490 564 36,000  Level Anchorage Center
10:45PM 54.5167 174.7333 262° West 490 564 36,000  Level Anchorage Center
10:46PM 54.5000 174.5333 257° West 480 552 36,000  Level Anchorage Center
10:47PM 54.4667 174.2833 254° West 480 552 36,000  Level Anchorage Center
10:48PM 54.4333 174.0833 256° West 490 564 36,000  Level Anchorage Center
10:49PM 54.4000 173.8500 257° West 480 552 36,000  Level Anchorage Center
10:50PM 54.3667 173.6000 253° West 480 552 36,000  Level Anchorage Center
10:51PM 54.3333 173.4167 257° West 480 552 36,000  Level Anchorage Center
10:52PM 54.3000 173.1667 254° West 490 564 36,000  Level Anchorage Center
10:53PM 54.2667 172.9667 256° West 490 564 36,000  Level Anchorage Center
10:54PM 54.2333 172.7333 245° Southwest 480 552 36,000  Level Anchorage Center
10:55PM 54.1833 172.5500 235° Southwest 490 564 36,000  Level Anchorage Center
10:56PM 54.1000 172.3500 236° Southwest 480 552 36,000  Level Anchorage Center
10:57PM 54.0333 172.1833 235° Southwest 490 564 36,000  Level Anchorage Center
10:58PM 53.9500 171.9833 235° Southwest 480 552 36,000  Level Anchorage Center
10:59PM 53.8667 171.7833 236° Southwest 480 552 36,000  Level Anchorage Center
11:00PM 53.8000 171.6167 235° Southwest 490 564 36,000  Level Anchorage Center
11:01PM 53.7167 171.4167 230° Southwest 480 552 36,000  Level Anchorage Center
11:02PM 53.6333 171.2500 235° Southwest 490 564 36,000  Level Anchorage Center
11:03PM 53.5500 171.0500 233° Southwest 480 552 36,000  Level Anchorage Center
11:04PM 53.4833 170.9000 235° Southwest 490 564 36,000  Level Anchorage Center
11:05PM 53.4000 170.7000 235° Southwest 490 564 36,000  Level Anchorage Center
11:06PM 53.3167 170.5000 233° Southwest 480 552 36,000  Level Anchorage Center
11:07PM 53.2500 170.3500 230° Southwest 490 564 36,000  Level Anchorage Center
11:08PM 53.1500 170.1500 234° Southwest 480 552 36,000  Level Anchorage Center
11:09PM 53.0833 170.0000 235° Southwest 490 564 36,000  Level Anchorage Center
11:10PM 53.0000 169.8000 239° Southwest 480 552 36,000  Level Anchorage Center
11:11PM 52.9333 169.6167 241° Southwest 500 575 36,000  Level Anchorage Center
11:12PM 52.8667 169.4167 244° Southwest 470 541 36,000  Level Anchorage Center
11:13PM 52.8167 169.2500 243° Southwest 480 552 36,000  Level Anchorage Center
11:14PM 52.7500 169.0333 237° Southwest 500 575 36,000  Level Anchorage Center
11:15PM 52.6833 168.8667 243° Southwest 490 564 36,000  Level Anchorage Center
11:16PM 52.6167 168.6500 241° Southwest 490 564 36,000  Level Anchorage Center
11:17PM 52.5500 168.4500 237° Southwest 470 541 36,000  Level Anchorage Center
11:18PM 52.4833 168.2833 243° Southwest 490 564 36,000  Level Anchorage Center
11:19PM 52.4167 168.0667 234° Southwest 490 564 36,000  Level Anchorage Center
11:20PM 52.3500 167.9167 243° Southwest 500 575 36,000  Level Anchorage Center
11:21PM 52.2833 167.7000 238° Southwest 490 564 36,000  Level Anchorage Center
11:32PM 51.4833 165.6833 239° Southwest 475 547 36,000  Level Anchorage Center
11:33PM 51.4333 165.5500 237° Southwest 484 557 36,000  Level Anchorage Center
11:39PM 50.9500 164.3833 237° Southwest 489 563 36,000  Level Anchorage Center
11:58PM 49.4833 161.0333 232° Southwest 482 555 36,000  Level Anchorage Center
11:59PM 49.4667 161.0000 235° Southwest 481 554 36,000  Level Anchorage Center
11:59PM 49.4234 160.9056 234° Southwest 489 563 36,000  Level FlightAware Transoceanic
12:00AM 49.3465 160.7418 234° Southwest 489 563 36,000  Level FlightAware Transoceanic
12:01AM 49.2693 160.5786 234° Southwest 489 563 36,000  Level FlightAware Transoceanic
12:02AM 49.1919 160.4159 234° Southwest 489 563 36,000  Level FlightAware Transoceanic
12:06AM 48.8797 159.7718 233° Southwest 481 554 36,000  Level FlightAware Transoceanic
12:07AM 48.8010 159.6127 233° Southwest 481 554 36,000  Level FlightAware Transoceanic
12:08AM 48.7221 159.4542 233° Southwest 481 554 36,000  Level FlightAware Transoceanic
12:09AM 48.6430 159.2961 233° Southwest 481 554 36,000  Level FlightAware Transoceanic
12:10AM 48.5636 159.1385 233° Southwest 481 554 36,000  Level FlightAware Transoceanic
12:11AM 48.4841 158.9814 233° Southwest 481 554 36,000  Level FlightAware Transoceanic
12:12AM 48.4043 158.8249 232° Southwest 481 554 36,000  Level FlightAware Transoceanic
12:13AM 48.3243 158.6688 232° Southwest 481 554 36,000  Level FlightAware Transoceanic
12:14AM 48.2441 158.5132 232° Southwest 481 554 36,000  Level FlightAware Transoceanic
12:15AM 48.1637 158.3581 232° Southwest 481 554 36,000  Level FlightAware Transoceanic
12:16AM 48.0831 158.2034 232° Southwest 481 554 36,000  Level FlightAware Transoceanic
12:17AM 48.0022 158.0493 232° Southwest 481 554 36,000  Level FlightAware Transoceanic
12:18AM 47.9212 157.8956 232° Southwest 481 554 36,000  Level FlightAware Transoceanic
12:19AM 47.8400 157.7424 232° Southwest 481 554 36,000  Level FlightAware Transoceanic
12:20AM 47.7585 157.5897 231° Southwest 481 554 36,000  Level FlightAware Transoceanic
12:21AM 47.6769 157.4375 231° Southwest 481 554 36,000  Level FlightAware Transoceanic
12:22AM 47.5951 157.2858 231° Southwest 481 554 36,000  Level FlightAware Transoceanic
12:23AM 47.5130 157.1345 231° Southwest 481 554 36,000  Level FlightAware Transoceanic
12:24AM 47.4308 156.9837 231° Southwest 481 554 36,000  Level FlightAware Transoceanic
12:25AM 47.3483 156.8334 231° Southwest 481 554 36,000  Level FlightAware Transoceanic
12:26AM 47.2657 156.6835 231° Southwest 481 554 36,000  Level FlightAware Transoceanic
12:27AM 47.1829 156.5341 231° Southwest 481 554 36,000  Level FlightAware Transoceanic
12:28AM 47.0999 156.3852 231° Southwest 481 554 36,000  Level FlightAware Transoceanic
12:29AM 47.0166 156.2367 231° Southwest 481 554 36,000  Level FlightAware Transoceanic
12:30AM 46.9332 156.0887 230° Southwest 481 554 36,000  Level FlightAware Transoceanic
12:31AM 46.8496 155.9412 230° Southwest 481 554 36,000  Level FlightAware Transoceanic
12:32AM 46.7659 155.7941 230° Southwest 481 554 36,000  Level FlightAware Transoceanic
12:33AM 46.6819 155.6475 230° Southwest 481 554 36,000  Level FlightAware Transoceanic
12:34AM 46.5977 155.5013 230° Southwest 481 554 36,000  Level FlightAware Transoceanic
12:35AM 46.5134 155.3556 230° Southwest 481 554 36,000  Level FlightAware Transoceanic
12:36AM 46.4289 155.2104 230° Southwest 481 554 36,000  Level FlightAware Transoceanic
12:37AM 46.3442 155.0656 230° Southwest 481 554 36,000  Level FlightAware Transoceanic
12:38AM 46.2593 154.9212 230° Southwest 481 554 36,000  Level FlightAware Transoceanic
12:39AM 46.1742 154.7773 229° Southwest 481 554 36,000  Level FlightAware Transoceanic
12:40AM 46.0889 154.6338 229° Southwest 481 554 36,000  Level FlightAware Transoceanic
12:41AM 46.0035 154.4908 229° Southwest 481 554 36,000  Level FlightAware Transoceanic
12:42AM 45.9179 154.3482 229° Southwest 481 554 36,000  Level FlightAware Transoceanic
12:43AM 45.8321 154.2061 229° Southwest 481 554 36,000  Level FlightAware Transoceanic
12:44AM 45.7461 154.0643 229° Southwest 481 554 36,000  Level FlightAware Transoceanic
12:45AM 45.6600 153.9231 229° Southwest 481 554 36,000  Level FlightAware Transoceanic
12:46AM 45.5737 153.7822 223° Southwest 481 554 36,000  Level FlightAware Transoceanic
12:47AM 45.4841 153.6644 228° Southwest  Level FlightAware Approximate
12:48AM 45.4024 153.5349 228° Southwest  Level FlightAware Approximate
12:49AM 45.3206 153.4057 228° Southwest  Level FlightAware Approximate
12:50AM 45.2387 153.2769 228° Southwest  Level FlightAware Approximate
12:51AM 45.1566 153.1484 228° Southwest  Level FlightAware Approximate
12:52AM 45.0743 153.0204 228° Southwest  Level FlightAware Approximate
12:53AM 44.9919 152.8927 228° Southwest  Level FlightAware Approximate
12:54AM 44.9094 152.7653 227° Southwest  Level FlightAware Approximate
12:55AM 44.8267 152.6384 227° Southwest  Level FlightAware Approximate
12:56AM 44.7439 152.5117 227° Southwest  Level FlightAware Approximate
12:57AM 44.6609 152.3855 227° Southwest  Level FlightAware Approximate
12:58AM 44.5778 152.2596 227° Southwest  Level FlightAware Approximate
12:59AM 44.4946 152.1341 227° Southwest  Level FlightAware Approximate
01:00AM 44.4112 152.0090 227° Southwest  Level FlightAware Approximate
01:01AM 44.3277 151.8842 227° Southwest  Level FlightAware Approximate
01:02AM 44.2441 151.7597 227° Southwest  Level FlightAware Approximate
01:03AM 44.1603 151.6356 227° Southwest  Level FlightAware Approximate
01:04AM 44.0764 151.5119 227° Southwest  Level FlightAware Approximate
01:05AM 43.9924 151.3885 227° Southwest  Level FlightAware Approximate
01:06AM 43.9082 151.2654 226° Southwest  Level FlightAware Approximate
01:07AM 43.8239 151.1427 226° Southwest  Level FlightAware Approximate
01:08AM 43.7394 151.0204 226° Southwest  Level FlightAware Approximate
01:09AM 43.6549 150.8983 226° Southwest  Level FlightAware Approximate
01:10AM 43.5702 150.7767 226° Southwest  Level FlightAware Approximate
01:11AM 43.4854 150.6554 226° Southwest  Level FlightAware Approximate
01:12AM 43.4004 150.5344 226° Southwest  Level FlightAware Approximate
01:13AM 43.3153 150.4137 226° Southwest  Level FlightAware Approximate
01:14AM 43.2301 150.2934 226° Southwest  Level FlightAware Approximate
01:15AM 43.1448 150.1735 226° Southwest  Level FlightAware Approximate
01:16AM 43.0593 150.0538 226° Southwest  Level FlightAware Approximate
01:17AM 42.9737 149.9345 226° Southwest  Level FlightAware Approximate
01:18AM 42.8880 149.8156 225° Southwest  Level FlightAware Approximate
01:19AM 42.8022 149.6969 225° Southwest  Level FlightAware Approximate
01:20AM 42.7163 149.5786 225° Southwest  Level FlightAware Approximate
01:21AM 42.6302 149.4606 225° Southwest  Level FlightAware Approximate
01:22AM 42.5440 149.3430 225° Southwest  Level FlightAware Approximate
01:23AM 42.4577 149.2257 225° Southwest  Level FlightAware Approximate
01:24AM 42.3713 149.1086 225° Southwest  Level FlightAware Approximate
01:25AM 42.2847 148.9920 225° Southwest  Level FlightAware Approximate
01:26AM 42.1980 148.8756 225° Southwest  Level FlightAware Approximate
01:27AM 42.1113 148.7596 225° Southwest  Level FlightAware Approximate
01:28AM 42.0244 148.6438 225° Southwest  Level FlightAware Approximate
01:29AM 41.9373 148.5284 225° Southwest  Level FlightAware Approximate
01:30AM 41.8502 148.4133 224° Southwest  Level FlightAware Approximate
01:31AM 41.7627 148.2982 235° Southwest  Level FlightAware Approximate
01:32AM 41.6937 148.1655 222° Southwest  Level FlightAware Approximate
01:33AM 41.6024 148.0562 222° Southwest  Level FlightAware Approximate
01:34AM 41.5109 147.9472 222° Southwest  Level FlightAware Approximate
01:35AM 41.4193 147.8385 222° Southwest  Level FlightAware Approximate
01:36AM 41.3276 147.7301 222° Southwest  Level FlightAware Approximate
01:37AM 41.2358 147.6221 221° Southwest  Level FlightAware Approximate
01:38AM 41.1439 147.5143 221° Southwest  Level FlightAware Approximate
01:39AM 41.0519 147.4068 221° Southwest  Level FlightAware Approximate
01:40AM 40.9598 147.2997 221° Southwest  Level FlightAware Approximate
01:41AM 40.8676 147.1928 221° Southwest  Level FlightAware Approximate
01:42AM 40.7753 147.0863 221° Southwest  Level FlightAware Approximate
01:43AM 40.6829 146.9800 221° Southwest  Level FlightAware Approximate
01:44AM 40.5904 146.8740 221° Southwest  Level FlightAware Approximate
01:45AM 40.4978 146.7683 221° Southwest  Level FlightAware Approximate
01:46AM 40.4051 146.6629 221° Southwest  Level FlightAware Approximate
01:47AM 40.3123 146.5578 221° Southwest  Level FlightAware Approximate
01:48AM 40.2194 146.4530 221° Southwest  Level FlightAware Approximate
01:49AM 40.1265 146.3485 221° Southwest  Level FlightAware Approximate
01:50AM 40.0334 146.2443 221° Southwest  Level FlightAware Approximate
01:51AM 39.9402 146.1403 220° Southwest  Level FlightAware Approximate
01:52AM 39.8470 146.0366 220° Southwest  Level FlightAware Approximate
01:53AM 39.7537 145.9332 220° Southwest  Level FlightAware Approximate
01:54AM 39.6602 145.8301 220° Southwest  Level FlightAware Approximate
01:55AM 39.5667 145.7273 220° Southwest  Level FlightAware Approximate
01:56AM 39.4731 145.6247 220° Southwest  Level FlightAware Approximate
01:57AM 39.3794 145.5225 220° Southwest  Level FlightAware Approximate
01:58AM 39.2856 145.4205 220° Southwest  Level FlightAware Approximate
01:59AM 39.1917 145.3187 220° Southwest  Level FlightAware Approximate
02:00AM 39.0977 145.2173 220° Southwest  Level FlightAware Approximate
02:01AM 39.0037 145.1161 220° Southwest  Level FlightAware Approximate
02:02AM 38.9095 145.0152 220° Southwest  Level FlightAware Approximate
02:03AM 38.8153 144.9145 220° Southwest  Level FlightAware Approximate
02:04AM 38.7210 144.8141 228° Southwest  Level FlightAware Approximate
02:05AM 38.6394 144.6969 228° Southwest  Level FlightAware Approximate
02:06AM 38.5578 144.5800 228° Southwest  Level FlightAware Approximate
02:07AM 38.4760 144.4633 228° Southwest  Level FlightAware Approximate
02:08AM 38.3941 144.3469 228° Southwest  Level FlightAware Approximate
02:09AM 38.3121 144.2307 228° Southwest  Level FlightAware Approximate
02:10AM 38.2299 144.1148 228° Southwest  Level FlightAware Approximate
02:11AM 38.1477 143.9992 228° Southwest  Level FlightAware Approximate
02:12AM 38.0654 143.8838 228° Southwest  Level FlightAware Approximate
02:13AM 37.9829 143.7687 228° Southwest  Level FlightAware Approximate
02:14AM 37.9003 143.6539 228° Southwest  Level FlightAware Approximate
02:15AM 37.8176 143.5393 210° Southwest  Level FlightAware Approximate
02:16AM 37.7119 143.4627 232° Southwest  Level FlightAware Approximate
02:17AM 37.6365 143.3406 232° Southwest  Level FlightAware Approximate
02:18AM 37.5609 143.2188 232° Southwest  Level FlightAware Approximate
02:19AM 37.4852 143.0973 232° Southwest  Level FlightAware Approximate
02:20AM 37.4094 142.9760 232° Southwest  Level FlightAware Approximate
02:21AM 37.3338 142.8555 232° Southwest  Level FlightAware Approximate
02:22AM 37.2581 142.7352 232° Southwest  Level FlightAware Approximate
02:23AM 37.1823 142.6151 232° Southwest  Level FlightAware Approximate
02:24AM 37.1063 142.4953 231° Southwest  Level FlightAware Approximate
02:25AM 37.0302 142.3758 231° Southwest  Level FlightAware Approximate
02:26AM 36.9540 142.2565 231° Southwest  Level FlightAware Approximate
02:27AM 36.8777 142.1374 231° Southwest  Level FlightAware Approximate
02:28AM 36.8013 142.0186 231° Southwest  Level FlightAware Approximate
02:29AM 36.7247 141.9000 231° Southwest  Level FlightAware Approximate
02:30AM 36.6480 141.7816 231° Southwest  Level FlightAware Approximate
02:31AM 36.5712 141.6635 231° Southwest  Level FlightAware Approximate
02:32AM 36.4943 141.5456 231° Southwest  Level FlightAware Approximate
02:33AM 36.4173 141.4279 231° Southwest  Level FlightAware Approximate
02:34AM 36.3402 141.3105 231° Southwest  Level FlightAware Approximate
02:35AM 36.2629 141.1933 231° Southwest  Level FlightAware Approximate
02:36AM 36.1855 141.0763 231° Southwest  Level FlightAware Approximate
02:37AM 36.1081 140.9596 231° Southwest  Level FlightAware Approximate
02:38AM 36.0305 140.8431 230° Southwest  Level FlightAware Approximate
02:39AM 35.9528 140.7268 230° Southwest  Level FlightAware Approximate
02:40AM 35.8749 140.6108 230° Southwest  Level FlightAware Approximate
02:41AM 35.7970 140.4950 243° Southwest  Level FlightAware Approximate
02:42AM 35.7500 140.3833 10° North  Level FlightAware Approximate
02:43AM 35.8703 140.4084 61° Northeast  Level Estimated
02:44AM 36.9191 142.8355 240° Southwest  Level FlightAware Approximate
02:45AM 36.8576 142.7038 240° Southwest  Level FlightAware Approximate
02:46AM 36.7959 142.5722 240° Southwest  Level FlightAware Approximate
02:47AM 36.7341 142.4409 240° Southwest  Level FlightAware Approximate
02:48AM 36.6721 142.3098 239° Southwest  Level FlightAware Approximate
02:49AM 36.6100 142.1789 239° Southwest  Level FlightAware Approximate
02:50AM 36.5478 142.0482 239° Southwest  Level FlightAware Approximate
02:51AM 36.4854 141.9177 239° Southwest  Level FlightAware Approximate
02:52AM 36.4229 141.7875 239° Southwest  Level FlightAware Approximate
02:53AM 36.3607 141.6584 239° Southwest  Level FlightAware Approximate
02:54AM 36.2983 141.5295 239° Southwest  Level FlightAware Approximate
02:55AM 36.2358 141.4008 239° Southwest  Level FlightAware Approximate
02:56AM 36.1732 141.2724 239° Southwest  Level FlightAware Approximate
02:57AM 36.1104 141.1441 239° Southwest  Level FlightAware Approximate
02:58AM 36.0475 141.0160 239° Southwest  Level FlightAware Approximate
02:59AM 35.9845 140.8882 239° Southwest  Level FlightAware Approximate
03:00AM 35.9213 140.7605 239° Southwest  Level FlightAware Approximate
03:01AM 35.8580 140.6331 238° Southwest  Level FlightAware Approximate
03:02AM 35.7946 140.5058 246° West  Level FlightAware Approximate
03:03AM 35.7500 140.3833 10° North  Level FlightAware Approximate
03:04AM 35.8694 140.4082 96° East  Level Estimated
03:05AM 35.8236 140.9385 262° West  Level FlightAware Approximate
03:06AM 35.8066 140.7906 262° West  Level FlightAware Approximate
03:07AM 35.7894 140.6428 262° West  Level FlightAware Approximate
03:08AM 35.7720 140.4951 256° West  Level FlightAware Approximate
03:09AM 35.7500 140.3833 10° North  Level FlightAware Approximate
03:10AM 35.8694 140.4082 190° South  Level Estimated
03:11AM 35.7500 140.3833 10° North  Level Estimated
03:12AM 35.8694 140.4082 190° South  Level Estimated
03:13AM 35.7500 140.3833 360° North  Level Estimated
03:14AM 35.7500 140.3833 10° North  Level FlightAware Approximate
03:15AM 35.8657 140.4074 75° East  Level Estimated
03:16AM 36.2798 142.3549 252° West  Level FlightAware Approximate
03:17AM 36.2438 142.2165 252° West  Level FlightAware Approximate
03:18AM 36.2076 142.0782 252° West  Level FlightAware Approximate
03:19AM 36.1712 141.9400 252° West  Level FlightAware Approximate
03:20AM 36.1347 141.8020 252° West  Level FlightAware Approximate
03:21AM 36.0980 141.6640 252° West  Level FlightAware Approximate
03:22AM 36.0611 141.5263 252° West  Level FlightAware Approximate
03:23AM 36.0241 141.3886 252° West  Level FlightAware Approximate
03:24AM 35.9869 141.2511 251° West  Level FlightAware Approximate
03:25AM 35.9496 141.1137 251° West  Level FlightAware Approximate
03:26AM 35.9122 140.9764 251° West  Level FlightAware Approximate
03:27AM 35.8745 140.8393 251° West  Level FlightAware Approximate
03:28AM 35.8367 140.7023 251° West  Level FlightAware Approximate
03:29AM 35.7988 140.5654 251° West  Level FlightAware Approximate
03:30AM 35.7613 140.4284 276° West  Level FlightAware Approximate
03:31AM 35.7730 140.2846 96° East  Level Estimated
03:32AM 35.7613 140.4284 276° West  Level Estimated
03:33AM 35.7730 140.2846 96° East  Level Estimated
03:34AM 35.7613 140.4284 276° West  Level Estimated
03:35AM 35.7730 140.2846 106° East  Level Estimated
03:36AM 35.7500 140.3833 10° North  Level FlightAware Approximate
03:37AM 35.8657 140.4074 10° North  Level Estimated